createdAt,value
2019-03-16T00:02:17.904Z,39.00
2019-03-16T00:05:21.582Z,39.00
2019-03-16T00:08:25.289Z,39.40
2019-03-16T00:11:28.953Z,39.70
2019-03-16T00:14:32.661Z,39.80
2019-03-16T00:17:36.591Z,40.20
2019-03-16T00:20:40.221Z,40.80
2019-03-16T00:23:43.944Z,40.40
2019-03-16T00:26:47.817Z,40.70
2019-03-16T00:29:51.561Z,40.80
2019-03-16T00:32:55.473Z,40.50
2019-03-16T00:35:59.379Z,40.50
2019-03-16T00:39:03.482Z,40.80
2019-03-16T00:42:07.173Z,41.00
2019-03-16T00:45:11.438Z,40.80
2019-03-16T00:48:15.070Z,40.40
2019-03-16T00:51:18.766Z,40.80
2019-03-16T00:54:22.424Z,40.60
2019-03-16T00:57:26.304Z,41.30
2019-03-16T01:00:35.634Z,41.60
2019-03-16T01:03:39.322Z,41.50
2019-03-16T01:06:43.012Z,41.70
2019-03-16T01:09:46.677Z,41.70
2019-03-16T01:12:50.338Z,42.70
2019-03-16T01:15:54.045Z,41.80
2019-03-16T01:18:57.725Z,42.30
2019-03-16T01:22:01.696Z,42.40
2019-03-16T01:25:05.791Z,42.90
2019-03-16T01:28:09.534Z,43.50
2019-03-16T01:31:13.269Z,43.10
2019-03-16T01:34:17.032Z,44.00
2019-03-16T01:37:20.746Z,43.90
2019-03-16T01:40:24.384Z,43.90
2019-03-16T01:43:28.109Z,44.00
2019-03-16T01:46:32.027Z,44.40
2019-03-16T01:49:35.733Z,44.30
2019-03-16T01:52:39.473Z,44.50
2019-03-16T01:55:43.252Z,44.80
2019-03-16T01:58:46.957Z,44.70
2019-03-16T02:01:50.713Z,44.60
2019-03-16T02:04:54.416Z,45.20
2019-03-16T02:07:58.151Z,45.00
2019-03-16T02:11:01.813Z,45.30
2019-03-16T02:14:05.532Z,45.20
2019-03-16T02:17:09.204Z,45.10
2019-03-16T02:20:12.963Z,45.20
2019-03-16T02:23:16.628Z,45.70
2019-03-16T02:26:20.394Z,45.30
2019-03-16T02:29:24.061Z,45.20
2019-03-16T02:32:27.740Z,45.10
2019-03-16T02:35:31.563Z,45.10
2019-03-16T02:38:35.446Z,44.80
2019-03-16T02:41:39.202Z,44.40
2019-03-16T02:44:43.134Z,44.30
2019-03-16T02:47:46.801Z,44.20
2019-03-16T02:50:50.516Z,44.40
2019-03-16T02:53:54.258Z,44.80
2019-03-16T02:56:58.186Z,45.20
2019-03-16T03:00:01.976Z,44.70
2019-03-16T03:03:06.072Z,45.00
2019-03-16T03:06:09.846Z,45.10
2019-03-16T03:09:13.525Z,45.20
2019-03-16T03:12:17.189Z,45.20
2019-03-16T03:15:21.232Z,45.50
2019-03-16T03:18:25.338Z,45.60
2019-03-16T03:21:28.994Z,45.70
2019-03-16T03:24:32.666Z,46.00
2019-03-16T03:27:36.434Z,45.90
2019-03-16T03:30:40.105Z,46.20
2019-03-16T03:33:59.265Z,46.30
2019-03-16T03:36:49.502Z,46.70
2019-03-16T03:39:53.171Z,46.70
2019-03-16T03:42:56.866Z,46.80
2019-03-16T03:46:00.642Z,46.80
2019-03-16T03:49:04.334Z,46.70
2019-03-16T03:52:08.054Z,46.60
2019-03-16T03:55:12.156Z,46.80
2019-03-16T03:58:15.869Z,46.80
2019-03-16T04:01:19.654Z,46.90
2019-03-16T04:04:23.407Z,47.10
2019-03-16T04:07:27.094Z,47.20
2019-03-16T04:10:31.103Z,47.40
2019-03-16T04:13:34.769Z,47.40
2019-03-16T04:16:38.478Z,47.30
2019-03-16T04:19:42.352Z,47.00
2019-03-16T04:22:46.033Z,47.40
2019-03-16T04:25:49.817Z,47.20
2019-03-16T04:28:53.454Z,47.60
2019-03-16T04:31:57.132Z,47.30
2019-03-16T04:35:00.886Z,47.40
2019-03-16T04:38:04.886Z,47.80
2019-03-16T04:41:08.541Z,48.10
2019-03-16T04:44:12.224Z,47.80
2019-03-16T04:47:15.933Z,47.70
2019-03-16T04:50:19.625Z,48.00
2019-03-16T04:53:23.290Z,48.50
2019-03-16T04:56:26.997Z,48.40
2019-03-16T04:59:30.655Z,48.20
2019-03-16T05:02:35.085Z,48.90
2019-03-16T05:05:38.808Z,49.00
2019-03-16T05:08:42.555Z,48.70
2019-03-16T05:11:46.531Z,49.00
2019-03-16T05:14:50.278Z,49.10
2019-03-16T05:17:54.305Z,49.40
2019-03-16T05:20:58.014Z,49.50
2019-03-16T05:24:03.015Z,49.80
2019-03-16T05:27:07.224Z,49.80
2019-03-16T05:30:11.501Z,49.70
2019-03-16T05:33:15.219Z,49.30
2019-03-16T05:36:18.860Z,49.50
2019-03-16T05:39:22.565Z,49.20
2019-03-16T05:42:26.328Z,49.00
2019-03-16T05:45:30.021Z,49.10
2019-03-16T05:48:33.764Z,49.20
2019-03-16T05:51:37.402Z,49.40
2019-03-16T05:54:41.345Z,49.20
2019-03-16T05:57:45.707Z,49.10
2019-03-16T06:00:49.646Z,49.30
2019-03-16T06:03:53.318Z,49.00
2019-03-16T06:06:57.001Z,49.50
2019-03-16T06:10:01.212Z,49.20
2019-03-16T06:13:04.892Z,49.70
2019-03-16T06:16:08.531Z,48.90
2019-03-16T06:19:12.236Z,48.80
2019-03-16T06:22:15.989Z,49.10
2019-03-16T06:25:19.838Z,48.60
2019-03-16T06:28:23.607Z,48.10
2019-03-16T06:31:27.352Z,48.60
2019-03-16T06:34:31.098Z,48.00
2019-03-16T06:37:35.050Z,48.20
2019-03-16T06:40:38.764Z,48.10
2019-03-16T06:43:42.496Z,47.50
2019-03-16T06:46:46.350Z,47.40
2019-03-16T06:49:50.030Z,47.20
2019-03-16T06:52:53.817Z,46.90
2019-03-16T06:55:57.564Z,47.40
2019-03-16T06:59:01.268Z,46.60
2019-03-16T07:02:05.294Z,46.70
2019-03-16T07:05:10.093Z,46.80
2019-03-16T07:08:14.072Z,46.70
2019-03-16T07:11:17.814Z,47.00
2019-03-16T07:14:21.513Z,46.60
2019-03-16T07:17:25.264Z,46.20
2019-03-16T07:20:28.986Z,45.70
2019-03-16T07:23:32.885Z,46.60
2019-03-16T07:26:36.738Z,45.50
2019-03-16T07:29:40.503Z,46.60
2019-03-16T07:32:44.201Z,45.40
2019-03-16T07:35:47.951Z,44.70
2019-03-16T07:38:52.498Z,45.00
2019-03-16T07:41:56.198Z,44.70
2019-03-16T07:45:08.161Z,45.20
2019-03-16T07:48:05.626Z,44.70
2019-03-16T07:51:09.716Z,44.10
2019-03-16T07:54:13.513Z,44.40
2019-03-16T07:57:17.367Z,43.30
2019-03-16T08:00:21.122Z,43.10
2019-03-16T08:03:24.866Z,43.70
2019-03-16T08:06:28.574Z,44.40
2019-03-16T08:09:32.565Z,43.60
2019-03-16T08:12:36.269Z,44.50
2019-03-16T08:15:40.109Z,44.10
2019-03-16T08:18:43.862Z,44.00
2019-03-16T08:21:47.833Z,43.80
2019-03-16T08:24:51.531Z,44.20
2019-03-16T08:27:55.576Z,44.00
2019-03-16T08:30:59.611Z,44.00
2019-03-16T08:34:03.309Z,43.40
2019-03-16T08:37:06.960Z,43.60
2019-03-16T08:40:10.726Z,42.90
2019-03-16T08:43:14.673Z,42.20
2019-03-16T08:46:18.381Z,42.40
2019-03-16T08:49:22.026Z,42.40
2019-03-16T08:52:25.734Z,41.30
2019-03-16T08:55:29.426Z,42.00
2019-03-16T08:58:33.155Z,40.80
2019-03-16T09:01:37.086Z,40.50
2019-03-16T09:04:40.742Z,40.80
2019-03-16T09:07:45.001Z,40.80
2019-03-16T09:10:49.001Z,40.90
2019-03-16T09:13:52.842Z,40.70
2019-03-16T09:16:56.523Z,41.10
2019-03-16T09:20:00.397Z,40.30
2019-03-16T09:23:04.252Z,40.10
2019-03-16T09:26:07.965Z,39.20
2019-03-16T09:29:15.240Z,39.10
2019-03-16T09:32:17.049Z,38.30
2019-03-16T09:35:20.765Z,38.80
2019-03-16T09:38:24.490Z,39.40
2019-03-16T09:41:28.197Z,39.70
2019-03-16T09:44:31.906Z,38.50
2019-03-16T09:47:35.641Z,38.70
2019-03-16T09:50:39.386Z,39.00
2019-03-16T09:53:43.083Z,39.80
2019-03-16T09:57:00.158Z,38.40
2019-03-16T09:59:53.262Z,38.80
2019-03-16T10:02:56.900Z,37.50
2019-03-16T10:06:00.680Z,37.00
2019-03-16T10:09:06.494Z,37.00
2019-03-16T10:12:10.277Z,38.00
2019-03-16T10:15:14.436Z,34.90
2019-03-16T10:18:18.152Z,35.50
2019-03-16T10:21:21.849Z,35.50
2019-03-16T10:24:25.525Z,36.00
2019-03-16T10:27:29.237Z,36.20
2019-03-16T10:30:32.919Z,36.20
2019-03-16T10:33:36.588Z,35.90
2019-03-16T10:36:40.266Z,35.80
2019-03-16T10:39:43.986Z,35.00
2019-03-16T10:42:47.624Z,35.20
2019-03-16T10:45:51.309Z,35.00
2019-03-16T10:48:55.009Z,34.70
2019-03-16T10:51:58.705Z,34.70
2019-03-16T10:55:02.405Z,34.70
2019-03-16T10:58:06.423Z,33.90
2019-03-16T11:01:10.128Z,33.70
2019-03-16T11:04:13.830Z,33.60
2019-03-16T11:07:17.513Z,33.60
2019-03-16T11:10:21.172Z,33.70
2019-03-16T11:13:24.887Z,33.90
2019-03-16T11:16:28.532Z,34.00
2019-03-16T11:19:32.193Z,34.50
2019-03-16T11:22:35.869Z,34.90
2019-03-16T11:25:39.541Z,35.50
2019-03-16T11:28:43.250Z,34.80
2019-03-16T11:31:47.088Z,36.60
2019-03-16T11:34:51.179Z,36.40
2019-03-16T11:37:55.066Z,36.40
2019-03-16T11:40:58.757Z,36.70
2019-03-16T11:44:02.468Z,37.40
2019-03-16T11:47:06.140Z,37.20
2019-03-16T11:50:09.945Z,36.50
2019-03-16T11:53:13.993Z,38.10
2019-03-16T11:56:18.540Z,38.30
2019-03-16T11:59:22.410Z,38.20
2019-03-16T12:02:26.152Z,39.30
2019-03-16T12:05:29.864Z,39.60
2019-03-16T12:08:33.725Z,40.90
2019-03-16T12:11:37.401Z,40.40
2019-03-16T12:14:48.497Z,42.50
2019-03-16T12:17:52.551Z,43.40
2019-03-16T12:20:56.317Z,45.80
2019-03-16T12:23:59.989Z,46.30
2019-03-16T12:27:04.022Z,46.80
2019-03-16T12:30:08.029Z,47.60
2019-03-16T12:33:11.757Z,51.10
2019-03-16T12:36:15.482Z,52.20
2019-03-16T12:39:19.268Z,53.70
2019-03-16T12:42:22.916Z,55.10
2019-03-16T12:45:26.595Z,53.40
2019-03-16T12:48:30.250Z,54.40
2019-03-16T12:51:34.000Z,56.90
2019-03-16T12:54:37.921Z,60.00
2019-03-16T12:57:41.671Z,62.70
2019-03-16T13:00:45.379Z,62.70
2019-03-16T13:03:50.334Z,61.40
2019-03-16T13:06:54.333Z,63.00
2019-03-16T13:09:57.998Z,61.80
2019-03-16T13:13:02.026Z,62.70
2019-03-16T13:16:05.860Z,61.80
2019-03-16T13:19:12.299Z,62.20
2019-03-16T13:22:14.991Z,62.10
2019-03-16T13:25:23.142Z,61.20
2019-03-16T13:28:26.815Z,62.30
2019-03-16T13:31:30.609Z,63.20
2019-03-16T13:34:34.288Z,62.50
2019-03-16T13:37:38.774Z,62.10
2019-03-16T13:40:42.513Z,63.50
2019-03-16T13:43:46.300Z,63.50
2019-03-16T13:46:50.093Z,66.00
2019-03-16T13:49:53.825Z,65.90
2019-03-16T13:52:57.552Z,63.60
2019-03-16T13:56:01.328Z,65.10
2019-03-16T13:59:05.045Z,65.20
2019-03-16T14:02:09.052Z,64.90
2019-03-16T14:05:13.070Z,66.90
2019-03-16T14:08:17.273Z,68.10
2019-03-16T14:11:21.855Z,66.40
2019-03-16T14:14:25.526Z,65.60
2019-03-16T14:17:29.517Z,65.30
2019-03-16T14:20:33.237Z,64.70
2019-03-16T14:23:37.281Z,67.60
2019-03-16T14:26:42.560Z,67.50
2019-03-16T14:29:46.851Z,69.70
2019-03-16T14:32:50.981Z,72.00
2019-03-16T14:35:55.024Z,70.10
2019-03-16T14:38:58.780Z,69.80
2019-03-16T14:42:02.517Z,71.90
2019-03-16T14:45:06.529Z,72.30
2019-03-16T14:48:10.280Z,73.30
2019-03-16T14:51:14.031Z,73.60
2019-03-16T14:54:17.753Z,72.30
2019-03-16T14:57:21.489Z,71.00
2019-03-16T15:00:37.205Z,71.40
2019-03-16T15:03:30.798Z,71.80
2019-03-16T15:06:34.455Z,73.70
2019-03-16T15:09:38.113Z,72.90
2019-03-16T15:12:42.079Z,74.30
2019-03-16T15:15:45.754Z,75.80
2019-03-16T15:18:49.467Z,76.00
2019-03-16T15:21:53.197Z,76.70
2019-03-16T15:24:57.229Z,76.30
2019-03-16T15:28:00.899Z,75.30
2019-03-16T15:31:04.902Z,74.40
2019-03-16T15:34:08.657Z,74.40
2019-03-16T15:37:12.557Z,75.20
2019-03-16T15:40:16.352Z,76.60
2019-03-16T15:43:20.055Z,75.80
2019-03-16T15:46:24.117Z,77.90
2019-03-16T15:49:27.796Z,78.20
2019-03-16T15:52:31.659Z,78.20
2019-03-16T15:55:35.425Z,78.70
2019-03-16T15:58:39.211Z,77.70
2019-03-16T16:01:42.934Z,78.20
2019-03-16T16:04:46.624Z,79.60
2019-03-16T16:07:50.277Z,79.70
2019-03-16T16:11:00.807Z,80.80
2019-03-16T16:13:59.882Z,80.40
2019-03-16T16:17:04.857Z,80.80
2019-03-16T16:20:09.213Z,80.50
2019-03-16T16:23:12.908Z,80.30
2019-03-16T16:26:16.704Z,80.30
2019-03-16T16:29:20.501Z,79.50
2019-03-16T16:32:24.406Z,80.60
2019-03-16T16:35:28.402Z,80.00
2019-03-16T16:38:32.772Z,80.90
2019-03-16T16:41:36.511Z,83.30
2019-03-16T16:44:40.251Z,82.80
2019-03-16T16:47:44.280Z,82.50
2019-03-16T16:50:48.087Z,83.40
2019-03-16T16:53:51.785Z,83.60
2019-03-16T16:56:55.485Z,83.80
2019-03-16T16:59:59.206Z,84.30
2019-03-16T17:03:02.908Z,85.70
2019-03-16T17:06:06.599Z,84.60
2019-03-16T17:09:10.364Z,85.20
2019-03-16T17:12:14.468Z,85.20
2019-03-16T17:15:18.222Z,83.50
2019-03-16T17:18:21.897Z,83.60
2019-03-16T17:21:25.621Z,84.40
2019-03-16T17:24:29.303Z,84.30
2019-03-16T17:27:32.961Z,84.70
2019-03-16T17:30:36.694Z,84.70
2019-03-16T17:33:40.362Z,84.70
2019-03-16T17:36:44.049Z,86.10
2019-03-16T17:39:47.771Z,85.60
2019-03-16T17:42:51.446Z,85.60
2019-03-16T17:45:55.137Z,87.00
2019-03-16T17:48:58.818Z,86.80
2019-03-16T17:52:02.513Z,87.30
2019-03-16T17:55:06.357Z,86.40
2019-03-16T17:58:10.015Z,87.40
2019-03-16T18:01:13.886Z,87.90
2019-03-16T18:04:17.665Z,88.60
2019-03-16T18:07:21.376Z,88.90
2019-03-16T18:10:25.413Z,88.30
2019-03-16T18:13:29.090Z,88.80
2019-03-16T18:16:32.858Z,88.50
2019-03-16T18:19:36.607Z,88.60
2019-03-16T18:22:40.327Z,88.80
2019-03-16T18:25:44.045Z,89.50
2019-03-16T18:28:47.819Z,89.30
2019-03-16T18:31:51.662Z,89.30
2019-03-16T18:34:55.321Z,89.30
2019-03-16T18:37:59.029Z,89.30
2019-03-16T18:41:02.781Z,89.40
2019-03-16T18:44:06.429Z,88.90
2019-03-16T18:47:10.161Z,89.20
2019-03-16T18:50:15.372Z,89.20
2019-03-16T18:53:19.546Z,88.60
2019-03-16T18:56:23.209Z,88.70
2019-03-16T18:59:26.937Z,88.70
2019-03-16T19:02:30.621Z,89.00
2019-03-16T19:05:34.312Z,88.90
2019-03-16T19:08:38.017Z,89.20
2019-03-16T19:11:41.986Z,88.80
2019-03-16T19:14:45.661Z,89.00
2019-03-16T19:17:58.583Z,88.10
2019-03-16T19:20:55.098Z,88.30
2019-03-16T19:23:58.945Z,88.20
2019-03-16T19:27:02.647Z,88.50
2019-03-16T19:30:07.702Z,88.40
2019-03-16T19:33:11.440Z,88.50
2019-03-16T19:36:15.105Z,88.20
2019-03-16T19:39:18.792Z,87.90
2019-03-16T19:42:22.810Z,87.70
2019-03-16T19:45:26.550Z,87.00
2019-03-16T19:48:31.148Z,86.80
2019-03-16T19:51:34.868Z,86.70
2019-03-16T19:54:38.557Z,86.20
2019-03-16T19:57:42.285Z,84.90
2019-03-16T20:00:45.968Z,84.50
2019-03-16T20:03:50.058Z,85.00
2019-03-16T20:06:54.123Z,84.00
2019-03-16T20:09:58.150Z,84.00
2019-03-16T20:13:01.971Z,84.20
2019-03-16T20:16:06.229Z,84.50
2019-03-16T20:19:10.074Z,84.20
2019-03-16T20:22:13.893Z,84.40
2019-03-16T20:25:17.653Z,84.70
2019-03-16T20:28:21.441Z,84.80
2019-03-16T20:31:25.171Z,85.50
2019-03-16T20:34:31.958Z,85.30
2019-03-16T20:37:34.988Z,85.20
2019-03-16T20:40:38.927Z,84.80
2019-03-16T20:43:43.009Z,85.30
2019-03-16T20:46:47.121Z,85.80
2019-03-16T20:49:51.187Z,85.70
2019-03-16T20:52:58.068Z,85.60
2019-03-16T20:56:01.824Z,85.80
2019-03-16T20:59:05.841Z,86.40
2019-03-16T21:02:09.808Z,86.50
2019-03-16T21:05:13.985Z,86.80
2019-03-16T21:08:17.821Z,86.50
2019-03-16T21:11:21.598Z,86.50
2019-03-16T21:14:25.689Z,86.40
2019-03-16T21:17:29.836Z,86.30
2019-03-16T21:20:33.879Z,85.70
2019-03-16T21:23:37.903Z,85.80
2019-03-16T21:26:51.905Z,85.60
2019-03-16T21:29:47.488Z,85.30
2019-03-16T21:32:54.270Z,84.50
2019-03-16T21:35:58.134Z,83.40
2019-03-16T21:39:02.215Z,83.00
2019-03-16T21:42:06.259Z,82.00
2019-03-16T21:45:10.277Z,81.70
2019-03-16T21:48:14.342Z,82.00
2019-03-16T21:51:18.334Z,82.10
2019-03-16T21:54:22.385Z,81.60
2019-03-16T21:57:26.922Z,81.30
2019-03-16T22:00:30.798Z,81.40
2019-03-16T22:03:41.838Z,81.50
2019-03-16T22:06:40.131Z,80.50
2019-03-16T22:09:44.053Z,80.20
2019-03-16T22:12:48.078Z,79.80
2019-03-16T22:15:52.016Z,79.50
2019-03-16T22:18:56.049Z,79.00
2019-03-16T22:22:00.056Z,78.90
2019-03-16T22:25:04.319Z,78.90
2019-03-16T22:28:10.206Z,77.90
2019-03-16T22:31:13.738Z,76.70
2019-03-16T22:34:17.725Z,75.60
2019-03-16T22:37:21.448Z,74.90
2019-03-16T22:40:25.414Z,74.50
2019-03-16T22:43:29.306Z,74.40
2019-03-16T22:46:33.237Z,74.00
2019-03-16T22:49:37.259Z,74.10
2019-03-16T22:52:41.475Z,73.50
2019-03-16T22:55:48.693Z,72.80
2019-03-16T22:58:52.783Z,71.90
2019-03-16T23:01:56.957Z,71.80
2019-03-16T23:05:00.883Z,70.80
2019-03-16T23:08:04.918Z,71.60
2019-03-16T23:11:08.948Z,71.50
2019-03-16T23:14:12.890Z,70.10
2019-03-16T23:17:16.924Z,69.50
2019-03-16T23:20:20.798Z,69.10
2019-03-16T23:23:24.874Z,68.50
2019-03-16T23:26:38.109Z,69.00
2019-03-16T23:29:34.606Z,68.80
2019-03-16T23:32:38.350Z,68.40
2019-03-16T23:35:42.086Z,68.50
2019-03-16T23:38:45.829Z,68.00
2019-03-16T23:41:49.643Z,68.50
2019-03-16T23:44:53.317Z,68.00
2019-03-16T23:47:57.221Z,67.60
2019-03-16T23:51:01.486Z,66.40
2019-03-16T23:54:05.213Z,66.00
2019-03-16T23:57:09.067Z,65.50
